Aérodrome :
LOGIN :

S'inscrire | Disclaimer

   EN    FR    IT 

 










Légende :    VFR   VFR Marginal   IFR   IFR Intensif   IFR Très Intensif
Visi : 
Plafond : 
>= 8 km
>= 3000ft
5 à 8 km
1000 à 3000 ft
1500m à 5 km
500 à 1000 ft
800 à 1500m
200 à 500 ft
< 800m
< 200 ft
Symboles :   Orages  Brouillard  Fortes neiges  Fortes précipitations  Vent > 20 kt
SIGMETs :   Divers  Orages  Givrage  Turbulence  Onde Orograph.  Cendres Volcan.







- Altitude de l'aérodrome : 433 ft
- Voir les cartes d'approche


LFOC - Chateaudun

DERNIER METAR :
  • 191230Z AUTO 35008KT 5000 BR NSC 17/11 Q1023 NOSIG

METARs EXPIRÉS :
  • 191200Z AUTO 36009KT 320V030 5000 BR FEW011 16/12 Q1023 NOSIG
  • 191130Z AUTO 35007KT 320V040 4300 BR BKN008 15/11 Q1023 BECMG 7000 NSW NSC
  • 191100Z AUTO 02008KT 4200 BR OVC007 14/11 Q1023 BECMG 7000 NSW NSC
  • 191030Z AUTO 01008KT 3900 BR OVC006 13/11 Q1023 BECMG 7000 NSW NSC
  • 191000Z AUTO 02009KT 3600 BR OVC005 12/11 Q1023 BECMG 7000 NSW NSC

TAF TAF LFOC
Valide du 19 à 09h jusqu'au 20 à 09h UTC


190800Z 1909/2009 01008KT 3000 BR OVC005
BECMG 1909/1911 7000 NSW NSC
Pas de NOTAMs connus pour ce terrain.



MET'MAP, la Météo Aéronautique d'un coup d'oeil ! - Copyright ORBIFLY Décembre 2007 - Disclaimer

ORBIFLY MET'MAP TEAM :

Programmation & Développement : Alexandra Zaïnal
Conception & Développement : Baudouin d'Aumeries
Co-Programmation & Développement : Marc-Olivier Méhu
Soutien technique & logistique : Manuel Goepfert

Contact : metmap@orbifly.com




SOURCES & CREDITS :

   NOAA